Airfield :
LOGIN :

Register | Disclaimer

   EN    FR    IT 

 










Legend :    VFR   Marginal VFR   IFR   Intensive IFR   Very Intensive IFR
Visi :
Ceiling :
>= 8 km
>= 3000ft
5 to 8 km
1000 to 3000 ft
1500m to 5 km
500 to 1000 ft
800 to 1500m
200 to 500 ft
< 800m
< 200 ft
Symbols :   Thunderstorms  Fog  Heavy snow  Heavy precipitations  Wind > 20 kt
SIGMETs :     Misc.  Thunderstorms  Icing  Turbulence  Mountain Waves  Volcanic Ashes







- Airport Elevation : 1273 ft
- IATA code : LJU


LJLJ - Ljubljana

CURRENT METAR :
  • 171430Z 08007G29KT 050V110 9999 FEW027 BKN087 01/M08 Q1022 NOSIG

EXPIRED METARs :
  • 171400Z 06007KT 030V090 9999 FEW027 BKN085 01/M08 Q1022 NOSIG
  • 171330Z 09011KT 9999 FEW038 BKN087 02/M09 Q1022 NOSIG
  • 171300Z 09009KT 9999 FEW038 BKN090 02/M09 Q1022 NOSIG
  • 171230Z 08006KT 030V120 9999 FEW045 BKN095 02/M09 Q1021 NOSIG
  • 171200Z 09009KT 040V110 9999 FEW045 BKN097 02/M09 Q1021 NOSIG

TAF TAF LJLJ
Valid from the 17 at 15:00 until the 18 at 15:00 UTC


171400Z 1715/1815 11005KT 9999 FEW040 BKN100
PROB30
TEMPO 1715/1815 -SN BKN040 OVC070
TEMPO 1812/1815 10010KT
No reported NOTAMs for that airfield.
1 SIGMET reported for the Ljubljana FIR (LJLA) :
 
Severe turbulence
LJLA SIGMET 3 VALID 171200/171600 LJLJ
LJLA LJUBLJANA FIR SEV TURB FCST SW OF LINE N46 E01345 - N4540 E01425 SFC/6000FT STNR NC=



MET'MAP, your aeronautical weather chart ! - Copyright ORBIFLY December 2007 - Disclaimer

ORBIFLY MET'MAP TEAM :

Programming & Development : Alexandra Zaïnal
Concept & Development : Baudouin d'Aumeries
Co-Development & Prog : Marc-Olivier Méhu
Technical & hardware support : Manuel Goepfert

Contact : metmap@orbifly.com




SOURCES & CREDITS :

   NOAA